Terminal Aerodrome Forecast
Issued by NWS

Home | Current Version | Previous Version | Text Only | Print | Product List | Glossary Off
Versions: 1 2 3 4 5 6 7 8 9 10 11 12 13 14 15 16

000
FTUS43 KGRB 241140
TAFCWA
TAF
KCWA 241140Z 2412/2512 18004KT 5SM BR SCT004 OVC012
      TEMPO 2412/2413 3/4SM BR BKN004
     FM241300 25006KT 6SM BR SCT008 OVC020
      TEMPO 2413/2415 2SM TSRA BKN008CB
     FM241500 26008G15KT P6SM SCT018 BKN035
      TEMPO 2415/2417 2SM TSRA BKN018CB
     FM241700 27010G17KT P6SM BKN035
     FM241900 27011G19KT P6SM SCT045
     FM242100 28012G21KT P6SM SCT200
     FM250200 28008KT P6SM FEW250=

USA.gov is the U.S. government's official web portal to all federal, state and local government web resources and services.